ADDS METAR Data INFO
IDs: Format: Raw Decoded Include TAF

Data at: 0945 UTC 25 Jun 2018

KJKL 250936Z AUTO VRB04KT 2SM +RA BR BKN029 OVC039 21/19 A3008 RMK AO2 LTG DSNT S-W P0020 T02060194
KJKL 250853Z AUTO 00000KT 10SM -RA SCT110 22/20 A3007 RMK AO2 LTG DSNT SW AND W SLP166 P0000 60000 T02170200 53004
KJKL 250753Z AUTO 00000KT 10SM -RA SCT034 BKN042 OVC080 22/20 A3007 RMK AO2 RAB33 SLP165 P0000 T02220200
KJKL 250653Z AUTO 00000KT 10SM FEW044 SCT120 22/20 A3006 RMK AO2 SLP161 T02220200
KJKL 250553Z AUTO 00000KT 10SM BKN120 23/19 A3006 RMK AO2 SLP160 T02330194 10278 20217 53007
KJKL 250453Z AUTO 00000KT 10SM CLR 23/20 A3004 RMK AO2 SLP157 T02280200 403000206
KJKL 250353Z AUTO 00000KT 10SM CLR 23/19 A3003 RMK AO2 SLP154 T02330189
KJKL 250253Z AUTO 00000KT 10SM CLR 23/19 A3004 RMK AO2 SLP155 T02330189 53006
KJKL 250153Z AUTO 00000KT 10SM CLR 24/19 A3003 RMK AO2 SLP153 T02440189
KJKL 250053Z AUTO 00000KT 10SM CLR 24/20 A3002 RMK AO2 SLP151 T02440200
KJKL 242353Z AUTO 31003KT 10SM CLR 28/20 A3002 RMK AO2 SLP149 T02780200 10300 20272 51010
KJKL 242253Z AUTO 30004KT 10SM FEW047 SCT060 28/19 A3001 RMK AO2 SLP146 T02830194
KJKL 242153Z AUTO VRB05KT 10SM CLR 29/19 A3001 RMK AO2 SLP145 T02890189
KJKL 242053Z AUTO 30005KT 10SM FEW043 29/19 A2999 RMK AO2 SLP137 T02940194 56004
KJKL 241953Z AUTO 31009G17KT 270V330 10SM SCT040 SCT048 28/19 A2999 RMK AO2 SLP139 T02830189
KJKL 241853Z AUTO VRB04KT 10SM FEW034 FEW045 SCT055 29/21 A2999 RMK AO2 SLP139 T02940206
KJKL 241753Z AUTO VRB05KT 10SM SCT028 SCT035 29/22 A3000 RMK AO2 SLP141 60000 T02940222 10294 20222 50002
KJKL 241706Z AUTO 29007KT 10SM FEW020 SCT028 27/21 A3000 RMK AO2 T02670211
KJKL 241653Z AUTO 31006KT 10SM FEW020 BKN028 OVC100 24/21 A3000 RMK AO2 RAB40E53 SLP145 P0000 T02440206
KJKL 241642Z AUTO 32006KT 10SM -RA BKN020 BKN033 BKN090 26/21 A3000 RMK AO2 RAB40 P0000 T02560211
KJKL 241610Z AUTO 10SM SCT020 SCT030 28/22 A3001 RMK AO2 T02780222
KJKL 241553Z AUTO 29003KT 10SM BKN020 BKN035 BKN047 26/22 A3001 RMK AO2 RAB38E52 CIG 016V028 SLP145 P0000 T02610217
KJKL 241536Z AUTO VRB04KT 10SM BKN018 BKN034 26/21 A3000 RMK AO2 T02560211
KJKL 241503Z AUTO VRB03KT 10SM SCT014 SCT024 BKN034 25/22 A2999 RMK AO2 T02500217
KJKL 241453Z AUTO 10SM BKN011 BKN018 BKN027 25/22 A2999 RMK AO2 SLP141 T02500217 51013
KJKL 241438Z AUTO VRB03KT 10SM FEW008 BKN011 BKN018 24/22 A2999 RMK AO2 T02440217
KJKL 241434Z AUTO 00000KT 10SM SCT011 BKN015 OVC033 24/21 A2998 RMK AO2 T02440211
KJKL 241353Z AUTO 00000KT 10SM OVC009 23/21 A2998 RMK AO2 CIG 007V012 SLP136 T02330211
KJKL 241253Z AUTO 00000KT 10SM BKN007 BKN012 23/21 A2997 RMK AO2 CIG 003V010 SLP132 T02280211
KJKL 241234Z AUTO VRB03KT 10SM FEW003 BKN014 22/21 A2996 RMK AO2 LTG DSNT E T02220206
KJKL 241211Z AUTO 00000KT 10SM SCT009 BKN015 22/20 A2995 RMK AO2 LTG DSNT E T02170200
KJKL 241153Z AUTO 00000KT 10SM FEW004 OVC009 21/20 A2995 RMK AO2 RAB25E37 TSB13E32 CIG 007V014 SLP128 P0000 60001 70010 T02110200 10217 20206 53012
KJKL 241139Z AUTO 00000KT 10SM SCT004 BKN008 OVC012 21/20 A2995 RMK AO2 LTG DSNT NE RAB25E37 TSB13E32 P0000 T02060200
KJKL 241132Z AUTO 00000KT 9SM VCTS -RA FEW004 OVC013 21/19 A2996 RMK AO2 LTG DSNT NE RAB25 TSB13E32 P0000 T02060194
KJKL 241119Z AUTO 00000KT 10SM TS OVC013 21/19 A2994 RMK AO2 TSB13 T02110194
KJKL 241108Z AUTO 00000KT 10SM VCTS BKN013 OVC018 21/20 A2993 RMK AO2 T02110200
KJKL 241053Z AUTO 00000KT 10SM OVC012 21/20 A2994 RMK AO2 LTG DSNT NW RAB21E51 SLP121 P0001 T02110200
KJKL 241032Z AUTO 00000KT 10SM -RA BKN014 BKN026 BKN110 21/19 A2993 RMK AO2 LTG DSNT W AND NW RAB21 P0000 T02110194
KJKL 241017Z AUTO 00000KT 10SM FEW002 BKN110 21/19 A2992 RMK AO2 LTG DSNT W T02060194
KJKL 240953Z AUTO 00000KT 10SM FEW022 21/19 A2992 RMK AO2 SLP117 T02110194
KJKL 240903Z AUTO 00000KT 10SM SCT015 BKN022 OVC031 21/20 A2991 RMK AO2 T02110200
KJKL 240853Z AUTO 00000KT 10SM BKN012 BKN019 BKN031 22/20 A2992 RMK AO2 SLP114 T02170200 58001
KJKL 240753Z AUTO 00000KT 10SM FEW027 BKN085 22/20 A2992 RMK AO2 SLP116 T02170200
KJKL 240745Z AUTO 00000KT 10SM SCT025 SCT032 OVC090 22/20 A2992 RMK AO2 T02170200
KJKL 240653Z AUTO 00000KT 10SM BKN027 BKN031 22/20 A2992 RMK AO2 SLP116 T02170200
KJKL 240648Z AUTO 00000KT 10SM BKN027 BKN047 22/20 A2992 RMK AO2
KJKL 240553Z AUTO VRB03KT 10SM FEW012 BKN032 OVC120 22/20 A2992 RMK AO2 SLP116 60009 T02220200 10261 20217 50004
KJKL 240546Z AUTO 00000KT 10SM SCT029 SCT065 BKN100 22/20 A2992 RMK AO2 T02220200
KJKL 240453Z AUTO 00000KT 10SM BKN029 OVC036 22/21 A2992 RMK AO2 SLP117 T02220206 402830183
KJKL 240450Z AUTO VRB03KT 10SM BKN029 BKN036 OVC046 22/21 A2992 RMK AO2
KJKL 240353Z AUTO 00000KT 10SM SCT040 BKN047 22/21 A2991 RMK AO2 RAE0254 SLP113 P0000 T02220206
KJKL 240253Z AUTO 00000KT 7SM -RA FEW014 SCT031 BKN039 22/20 A2990 RMK AO2 RAB39 SLP111 P0009 60009 T02170200 51013
KJKL 240249Z AUTO 26005KT 2SM -RA BR FEW016 SCT031 BKN039 22/20 A2989 RMK AO2 RAB39 P0009
KJKL 240153Z AUTO 00000KT 10SM BKN043 BKN050 BKN075 24/19 A2987 RMK AO2 SLP101 T02440194
KJKL 240053Z AUTO 00000KT 10SM FEW050 25/19 A2986 RMK AO2 SLP096 T02500194
KJKL 232353Z AUTO 27003KT 10SM CLR 26/20 A2985 RMK AO2 SLP093 60000 T02610200 10283 20244 55001
KJKL 232253Z AUTO 00000KT 10SM CLR 28/20 A2984 RMK AO2 SLP090 T02780200
KJKL 232153Z AUTO 10SM SCT075 27/19 A2985 RMK AO2 SLP095 T02670194